sensor_id;sensor_type;location;lat;lon;timestamp;P1;durP1;ratioP1;P2;durP2;ratioP2
71562;SDS011;59391;52.504;13.438;2023-05-07T00:01:45;19.45;;;13.02;;
71562;SDS011;59391;52.504;13.438;2023-05-07T00:04:10;21.20;;;13.27;;
71562;SDS011;59391;52.504;13.438;2023-05-07T00:06:36;19.17;;;13.23;;
71562;SDS011;59391;52.504;13.438;2023-05-07T00:09:02;21.52;;;14.57;;
71562;SDS011;59391;52.504;13.438;2023-05-07T00:11:29;31.13;;;19.00;;
71562;SDS011;59391;52.504;13.438;2023-05-07T00:13:55;21.30;;;13.63;;
71562;SDS011;59391;52.504;13.438;2023-05-07T00:16:20;17.88;;;12.90;;
71562;SDS011;59391;52.504;13.438;2023-05-07T00:18:46;19.60;;;11.93;;
71562;SDS011;59391;52.504;13.438;2023-05-07T00:21:11;19.63;;;12.83;;
71562;SDS011;59391;52.504;13.438;2023-05-07T00:23:37;19.90;;;13.10;;
71562;SDS011;59391;52.504;13.438;2023-05-07T00:26:03;17.77;;;12.07;;
71562;SDS011;59391;52.504;13.438;2023-05-07T00:28:29;20.45;;;14.32;;
71562;SDS011;59391;52.504;13.438;2023-05-07T00:30:54;16.63;;;12.30;;
71562;SDS011;59391;52.504;13.438;2023-05-07T00:33:21;17.27;;;12.03;;
71562;SDS011;59391;52.504;13.438;2023-05-07T00:35:47;17.58;;;11.60;;
71562;SDS011;59391;52.504;13.438;2023-05-07T00:38:13;16.48;;;12.20;;
71562;SDS011;59391;52.504;13.438;2023-05-07T00:40:38;18.03;;;12.70;;
71562;SDS011;59391;52.504;13.438;2023-05-07T00:43:04;17.92;;;12.07;;
71562;SDS011;59391;52.504;13.438;2023-05-07T00:45:30;18.17;;;12.60;;
71562;SDS011;59391;52.504;13.438;2023-05-07T00:47:56;17.50;;;12.40;;
71562;SDS011;59391;52.504;13.438;2023-05-07T00:50:25;17.17;;;11.90;;
71562;SDS011;59391;52.504;13.438;2023-05-07T00:52:52;17.60;;;11.80;;
71562;SDS011;59391;52.504;13.438;2023-05-07T00:55:18;17.10;;;11.82;;
71562;SDS011;59391;52.504;13.438;2023-05-07T00:57:44;18.55;;;13.02;;
71562;SDS011;59391;52.504;13.438;2023-05-07T01:00:11;19.45;;;12.65;;
71562;SDS011;59391;52.504;13.438;2023-05-07T01:02:41;16.80;;;12.68;;
71562;SDS011;59391;52.504;13.438;2023-05-07T01:05:07;16.00;;;11.53;;
71562;SDS011;59391;52.504;13.438;2023-05-07T01:07:37;17.67;;;12.10;;
71562;SDS011;59391;52.504;13.438;2023-05-07T01:10:05;18.25;;;11.93;;
71562;SDS011;59391;52.504;13.438;2023-05-07T01:12:33;20.45;;;12.32;;
71562;SDS011;59391;52.504;13.438;2023-05-07T01:15:02;18.17;;;11.68;;
71562;SDS011;59391;52.504;13.438;2023-05-07T01:17:33;17.10;;;11.93;;
71562;SDS011;59391;52.504;13.438;2023-05-07T01:20:05;20.05;;;12.63;;
71562;SDS011;59391;52.504;13.438;2023-05-07T01:22:33;18.52;;;12.73;;
71562;SDS011;59391;52.504;13.438;2023-05-07T01:25:04;21.05;;;12.77;;
71562;SDS011;59391;52.504;13.438;2023-05-07T01:27:32;17.13;;;12.43;;
71562;SDS011;59391;52.504;13.438;2023-05-07T01:29:58;17.80;;;11.90;;
71562;SDS011;59391;52.504;13.438;2023-05-07T01:32:41;18.63;;;11.70;;
71562;SDS011;59391;52.504;13.438;2023-05-07T01:35:15;17.77;;;12.73;;
71562;SDS011;59391;52.504;13.438;2023-05-07T01:37:49;16.80;;;11.02;;
71562;SDS011;59391;52.504;13.438;2023-05-07T01:40:15;16.92;;;11.90;;
71562;SDS011;59391;52.504;13.438;2023-05-07T01:42:41;17.85;;;11.63;;
71562;SDS011;59391;52.504;13.438;2023-05-07T01:45:08;17.42;;;12.13;;
71562;SDS011;59391;52.504;13.438;2023-05-07T01:47:36;16.25;;;11.18;;
71562;SDS011;59391;52.504;13.438;2023-05-07T01:50:03;18.95;;;12.25;;
71562;SDS011;59391;52.504;13.438;2023-05-07T01:52:38;17.60;;;11.68;;
71562;SDS011;59391;52.504;13.438;2023-05-07T01:55:04;19.85;;;13.05;;
71562;SDS011;59391;52.504;13.438;2023-05-07T01:57:31;15.40;;;11.40;;
71562;SDS011;59391;52.504;13.438;2023-05-07T01:59:57;16.77;;;11.10;;
71562;SDS011;59391;52.504;13.438;2023-05-07T02:02:22;17.80;;;11.40;;
71562;SDS011;59391;52.504;13.438;2023-05-07T02:04:48;17.07;;;11.23;;
71562;SDS011;59391;52.504;13.438;2023-05-07T02:07:13;16.92;;;11.48;;
71562;SDS011;59391;52.504;13.438;2023-05-07T02:09:39;17.90;;;12.27;;
71562;SDS011;59391;52.504;13.438;2023-05-07T02:12:05;17.38;;;12.02;;
71562;SDS011;59391;52.504;13.438;2023-05-07T02:14:30;17.03;;;11.87;;
71562;SDS011;59391;52.504;13.438;2023-05-07T02:16:56;18.77;;;11.93;;
71562;SDS011;59391;52.504;13.438;2023-05-07T02:19:21;19.88;;;12.00;;
71562;SDS011;59391;52.504;13.438;2023-05-07T02:21:47;17.03;;;11.33;;
71562;SDS011;59391;52.504;13.438;2023-05-07T02:24:13;20.40;;;11.73;;
71562;SDS011;59391;52.504;13.438;2023-05-07T02:26:42;17.33;;;11.73;;
71562;SDS011;59391;52.504;13.438;2023-05-07T02:29:07;20.13;;;12.52;;
71562;SDS011;59391;52.504;13.438;2023-05-07T02:31:33;17.50;;;11.53;;
71562;SDS011;59391;52.504;13.438;2023-05-07T02:34:01;20.20;;;11.95;;
71562;SDS011;59391;52.504;13.438;2023-05-07T02:36:27;19.08;;;12.35;;
71562;SDS011;59391;52.504;13.438;2023-05-07T02:38:52;18.60;;;12.23;;
71562;SDS011;59391;52.504;13.438;2023-05-07T02:41:18;18.75;;;12.32;;
71562;SDS011;59391;52.504;13.438;2023-05-07T02:43:45;16.70;;;11.40;;
71562;SDS011;59391;52.504;13.438;2023-05-07T02:46:10;19.03;;;12.27;;
71562;SDS011;59391;52.504;13.438;2023-05-07T02:48:36;19.13;;;11.95;;
71562;SDS011;59391;52.504;13.438;2023-05-07T02:51:01;16.03;;;10.97;;
71562;SDS011;59391;52.504;13.438;2023-05-07T02:53:28;16.13;;;10.93;;
71562;SDS011;59391;52.504;13.438;2023-05-07T02:55:58;20.08;;;11.35;;
71562;SDS011;59391;52.504;13.438;2023-05-07T02:58:25;19.00;;;11.82;;
71562;SDS011;59391;52.504;13.438;2023-05-07T03:00:52;17.15;;;12.35;;
71562;SDS011;59391;52.504;13.438;2023-05-07T03:03:19;14.85;;;10.73;;
71562;SDS011;59391;52.504;13.438;2023-05-07T03:05:45;19.67;;;11.73;;
71562;SDS011;59391;52.504;13.438;2023-05-07T03:08:11;16.93;;;11.53;;
71562;SDS011;59391;52.504;13.438;2023-05-07T03:10:37;15.82;;;10.65;;
71562;SDS011;59391;52.504;13.438;2023-05-07T03:13:03;17.07;;;11.30;;
71562;SDS011;59391;52.504;13.438;2023-05-07T03:15:29;16.25;;;11.60;;
71562;SDS011;59391;52.504;13.438;2023-05-07T03:17:55;19.85;;;11.38;;
71562;SDS011;59391;52.504;13.438;2023-05-07T03:20:21;17.73;;;10.70;;
71562;SDS011;59391;52.504;13.438;2023-05-07T03:22:47;16.15;;;10.77;;
71562;SDS011;59391;52.504;13.438;2023-05-07T03:25:13;15.60;;;10.50;;
71562;SDS011;59391;52.504;13.438;2023-05-07T03:27:39;14.88;;;10.40;;
71562;SDS011;59391;52.504;13.438;2023-05-07T03:30:07;14.68;;;10.43;;
71562;SDS011;59391;52.504;13.438;2023-05-07T03:32:33;16.05;;;10.98;;
71562;SDS011;59391;52.504;13.438;2023-05-07T03:35:00;16.48;;;11.15;;
71562;SDS011;59391;52.504;13.438;2023-05-07T03:37:26;16.02;;;11.25;;
71562;SDS011;59391;52.504;13.438;2023-05-07T03:39:51;18.42;;;11.75;;
71562;SDS011;59391;52.504;13.438;2023-05-07T03:42:17;18.67;;;11.80;;
71562;SDS011;59391;52.504;13.438;2023-05-07T03:44:43;18.15;;;11.90;;
71562;SDS011;59391;52.504;13.438;2023-05-07T03:47:08;16.70;;;11.20;;
71562;SDS011;59391;52.504;13.438;2023-05-07T03:49:35;18.48;;;11.43;;
71562;SDS011;59391;52.504;13.438;2023-05-07T03:52:00;17.03;;;11.37;;
71562;SDS011;59391;52.504;13.438;2023-05-07T03:54:26;17.60;;;11.00;;
71562;SDS011;59391;52.504;13.438;2023-05-07T03:56:52;18.57;;;11.60;;
71562;SDS011;59391;52.504;13.438;2023-05-07T03:59:17;14.87;;;10.70;;
71562;SDS011;59391;52.504;13.438;2023-05-07T04:01:43;14.73;;;10.27;;
71562;SDS011;59391;52.504;13.438;2023-05-07T04:04:08;16.67;;;10.83;;
71562;SDS011;59391;52.504;13.438;2023-05-07T04:06:34;14.98;;;10.82;;
71562;SDS011;59391;52.504;13.438;2023-05-07T04:08:59;15.63;;;10.80;;
71562;SDS011;59391;52.504;13.438;2023-05-07T04:11:25;15.87;;;10.67;;
71562;SDS011;59391;52.504;13.438;2023-05-07T04:13:51;15.75;;;11.05;;
71562;SDS011;59391;52.504;13.438;2023-05-07T04:16:17;14.32;;;10.60;;
71562;SDS011;59391;52.504;13.438;2023-05-07T04:18:42;15.53;;;10.33;;
71562;SDS011;59391;52.504;13.438;2023-05-07T04:21:18;16.13;;;9.90;;
71562;SDS011;59391;52.504;13.438;2023-05-07T04:23:48;14.98;;;10.43;;
71562;SDS011;59391;52.504;13.438;2023-05-07T04:26:14;16.52;;;10.80;;
71562;SDS011;59391;52.504;13.438;2023-05-07T04:28:40;15.70;;;10.20;;
71562;SDS011;59391;52.504;13.438;2023-05-07T04:31:06;17.65;;;10.60;;
71562;SDS011;59391;52.504;13.438;2023-05-07T04:33:32;13.63;;;10.40;;
71562;SDS011;59391;52.504;13.438;2023-05-07T04:36:01;16.40;;;10.00;;
71562;SDS011;59391;52.504;13.438;2023-05-07T04:38:29;15.23;;;9.93;;
71562;SDS011;59391;52.504;13.438;2023-05-07T04:40:56;15.30;;;9.90;;
71562;SDS011;59391;52.504;13.438;2023-05-07T04:43:27;14.00;;;9.25;;
71562;SDS011;59391;52.504;13.438;2023-05-07T04:45:52;13.10;;;9.23;;
71562;SDS011;59391;52.504;13.438;2023-05-07T04:48:18;13.63;;;9.13;;
71562;SDS011;59391;52.504;13.438;2023-05-07T04:50:48;13.60;;;9.70;;
71562;SDS011;59391;52.504;13.438;2023-05-07T04:53:15;14.20;;;9.30;;
71562;SDS011;59391;52.504;13.438;2023-05-07T04:55:45;13.45;;;8.50;;
71562;SDS011;59391;52.504;13.438;2023-05-07T04:58:11;13.57;;;9.38;;
71562;SDS011;59391;52.504;13.438;2023-05-07T05:00:37;11.93;;;8.47;;
71562;SDS011;59391;52.504;13.438;2023-05-07T05:03:04;13.02;;;9.00;;
71562;SDS011;59391;52.504;13.438;2023-05-07T05:05:33;12.20;;;9.15;;
71562;SDS011;59391;52.504;13.438;2023-05-07T05:07:59;14.13;;;8.27;;
71562;SDS011;59391;52.504;13.438;2023-05-07T05:10:25;12.82;;;8.70;;
71562;SDS011;59391;52.504;13.438;2023-05-07T05:12:50;11.70;;;8.13;;
71562;SDS011;59391;52.504;13.438;2023-05-07T05:15:16;12.85;;;8.88;;
71562;SDS011;59391;52.504;13.438;2023-05-07T05:17:42;12.07;;;8.53;;
71562;SDS011;59391;52.504;13.438;2023-05-07T05:20:08;13.30;;;8.75;;
71562;SDS011;59391;52.504;13.438;2023-05-07T05:22:35;12.15;;;8.40;;
71562;SDS011;59391;52.504;13.438;2023-05-07T05:25:01;11.80;;;8.23;;
71562;SDS011;59391;52.504;13.438;2023-05-07T05:27:26;12.23;;;8.45;;
71562;SDS011;59391;52.504;13.438;2023-05-07T05:29:53;12.73;;;8.55;;
71562;SDS011;59391;52.504;13.438;2023-05-07T05:32:18;12.88;;;8.02;;
71562;SDS011;59391;52.504;13.438;2023-05-07T05:34:44;14.10;;;9.10;;
71562;SDS011;59391;52.504;13.438;2023-05-07T05:37:10;13.52;;;8.32;;
71562;SDS011;59391;52.504;13.438;2023-05-07T05:39:36;11.87;;;8.50;;
71562;SDS011;59391;52.504;13.438;2023-05-07T05:42:01;12.75;;;9.20;;
71562;SDS011;59391;52.504;13.438;2023-05-07T05:44:27;13.40;;;9.00;;
71562;SDS011;59391;52.504;13.438;2023-05-07T05:46:53;12.43;;;9.27;;
71562;SDS011;59391;52.504;13.438;2023-05-07T05:49:22;12.63;;;9.18;;
71562;SDS011;59391;52.504;13.438;2023-05-07T05:51:48;13.88;;;9.13;;
71562;SDS011;59391;52.504;13.438;2023-05-07T05:54:13;13.60;;;9.17;;
71562;SDS011;59391;52.504;13.438;2023-05-07T05:56:40;13.98;;;10.18;;
71562;SDS011;59391;52.504;13.438;2023-05-07T05:59:06;13.52;;;9.32;;
71562;SDS011;59391;52.504;13.438;2023-05-07T06:01:32;13.77;;;8.80;;
71562;SDS011;59391;52.504;13.438;2023-05-07T06:03:58;15.00;;;9.70;;
71562;SDS011;59391;52.504;13.438;2023-05-07T06:06:24;13.07;;;8.87;;
71562;SDS011;59391;52.504;13.438;2023-05-07T06:08:49;15.48;;;9.57;;
71562;SDS011;59391;52.504;13.438;2023-05-07T06:11:15;15.43;;;9.73;;
71562;SDS011;59391;52.504;13.438;2023-05-07T06:13:40;15.27;;;9.68;;
71562;SDS011;59391;52.504;13.438;2023-05-07T06:16:06;13.20;;;8.87;;
71562;SDS011;59391;52.504;13.438;2023-05-07T06:18:32;13.43;;;8.63;;
71562;SDS011;59391;52.504;13.438;2023-05-07T06:20:57;14.23;;;8.90;;
71562;SDS011;59391;52.504;13.438;2023-05-07T06:23:23;12.67;;;8.77;;
71562;SDS011;59391;52.504;13.438;2023-05-07T06:25:49;14.23;;;9.30;;
71562;SDS011;59391;52.504;13.438;2023-05-07T06:28:16;13.60;;;9.75;;
71562;SDS011;59391;52.504;13.438;2023-05-07T06:30:42;14.10;;;9.43;;
71562;SDS011;59391;52.504;13.438;2023-05-07T06:33:08;12.82;;;9.05;;
71562;SDS011;59391;52.504;13.438;2023-05-07T06:35:33;11.87;;;8.57;;
71562;SDS011;59391;52.504;13.438;2023-05-07T06:37:59;13.30;;;8.65;;
71562;SDS011;59391;52.504;13.438;2023-05-07T06:40:25;12.80;;;8.48;;
71562;SDS011;59391;52.504;13.438;2023-05-07T06:42:51;14.68;;;8.65;;
71562;SDS011;59391;52.504;13.438;2023-05-07T06:45:17;13.63;;;8.18;;
71562;SDS011;59391;52.504;13.438;2023-05-07T06:47:44;14.38;;;8.45;;
71562;SDS011;59391;52.504;13.438;2023-05-07T06:50:09;14.40;;;9.02;;
71562;SDS011;59391;52.504;13.438;2023-05-07T06:52:35;13.23;;;8.50;;
71562;SDS011;59391;52.504;13.438;2023-05-07T06:55:01;12.65;;;8.60;;
71562;SDS011;59391;52.504;13.438;2023-05-07T06:57:27;12.60;;;8.88;;
71562;SDS011;59391;52.504;13.438;2023-05-07T06:59:52;13.80;;;8.87;;
71562;SDS011;59391;52.504;13.438;2023-05-07T07:02:18;12.57;;;8.23;;
71562;SDS011;59391;52.504;13.438;2023-05-07T07:04:51;12.00;;;8.23;;
71562;SDS011;59391;52.504;13.438;2023-05-07T07:07:17;12.18;;;7.97;;
71562;SDS011;59391;52.504;13.438;2023-05-07T07:09:43;12.50;;;7.80;;
71562;SDS011;59391;52.504;13.438;2023-05-07T07:12:08;10.73;;;7.77;;
71562;SDS011;59391;52.504;13.438;2023-05-07T07:14:34;11.15;;;7.88;;
71562;SDS011;59391;52.504;13.438;2023-05-07T07:16:59;11.50;;;7.10;;
71562;SDS011;59391;52.504;13.438;2023-05-07T07:19:25;11.10;;;7.40;;
71562;SDS011;59391;52.504;13.438;2023-05-07T07:21:51;12.00;;;7.37;;
71562;SDS011;59391;52.504;13.438;2023-05-07T07:24:16;10.93;;;8.10;;
71562;SDS011;59391;52.504;13.438;2023-05-07T07:26:45;11.43;;;8.37;;
71562;SDS011;59391;52.504;13.438;2023-05-07T07:29:11;10.75;;;7.53;;
71562;SDS011;59391;52.504;13.438;2023-05-07T07:31:37;11.52;;;8.07;;
71562;SDS011;59391;52.504;13.438;2023-05-07T07:34:03;11.20;;;7.53;;
71562;SDS011;59391;52.504;13.438;2023-05-07T07:36:29;10.68;;;7.38;;
71562;SDS011;59391;52.504;13.438;2023-05-07T07:38:55;11.15;;;7.43;;
71562;SDS011;59391;52.504;13.438;2023-05-07T07:41:21;10.38;;;6.75;;
71562;SDS011;59391;52.504;13.438;2023-05-07T07:43:46;11.73;;;7.20;;
71562;SDS011;59391;52.504;13.438;2023-05-07T07:46:12;12.52;;;7.88;;
71562;SDS011;59391;52.504;13.438;2023-05-07T07:48:37;11.27;;;7.00;;
71562;SDS011;59391;52.504;13.438;2023-05-07T07:51:03;10.07;;;6.93;;
71562;SDS011;59391;52.504;13.438;2023-05-07T07:53:29;10.88;;;6.65;;
71562;SDS011;59391;52.504;13.438;2023-05-07T07:55:55;10.23;;;6.63;;
71562;SDS011;59391;52.504;13.438;2023-05-07T07:58:21;8.63;;;6.03;;
71562;SDS011;59391;52.504;13.438;2023-05-07T08:00:47;8.90;;;5.97;;
71562;SDS011;59391;52.504;13.438;2023-05-07T08:03:13;8.47;;;5.30;;
71562;SDS011;59391;52.504;13.438;2023-05-07T08:05:41;9.00;;;5.55;;
71562;SDS011;59391;52.504;13.438;2023-05-07T08:08:07;8.88;;;6.03;;
71562;SDS011;59391;52.504;13.438;2023-05-07T08:10:33;8.90;;;5.72;;
71562;SDS011;59391;52.504;13.438;2023-05-07T08:12:59;7.85;;;5.30;;
71562;SDS011;59391;52.504;13.438;2023-05-07T08:15:26;8.27;;;5.10;;
71562;SDS011;59391;52.504;13.438;2023-05-07T08:17:52;7.45;;;5.28;;
71562;SDS011;59391;52.504;13.438;2023-05-07T08:20:17;7.87;;;5.30;;
71562;SDS011;59391;52.504;13.438;2023-05-07T08:22:43;8.27;;;5.90;;
71562;SDS011;59391;52.504;13.438;2023-05-07T08:25:09;7.80;;;5.30;;
71562;SDS011;59391;52.504;13.438;2023-05-07T08:27:34;8.80;;;5.70;;
71562;SDS011;59391;52.504;13.438;2023-05-07T08:30:00;8.73;;;5.43;;
71562;SDS011;59391;52.504;13.438;2023-05-07T08:32:26;9.65;;;5.57;;
71562;SDS011;59391;52.504;13.438;2023-05-07T08:34:52;9.60;;;5.53;;
71562;SDS011;59391;52.504;13.438;2023-05-07T08:37:18;8.73;;;5.68;;
71562;SDS011;59391;52.504;13.438;2023-05-07T08:39:43;6.73;;;5.17;;
71562;SDS011;59391;52.504;13.438;2023-05-07T08:42:09;6.88;;;5.05;;
71562;SDS011;59391;52.504;13.438;2023-05-07T08:44:37;9.65;;;5.88;;
71562;SDS011;59391;52.504;13.438;2023-05-07T08:47:06;7.72;;;5.00;;
71562;SDS011;59391;52.504;13.438;2023-05-07T08:49:33;7.22;;;4.88;;
71562;SDS011;59391;52.504;13.438;2023-05-07T08:52:00;7.95;;;5.00;;
71562;SDS011;59391;52.504;13.438;2023-05-07T08:54:26;7.07;;;4.78;;
71562;SDS011;59391;52.504;13.438;2023-05-07T08:56:54;8.27;;;5.28;;
71562;SDS011;59391;52.504;13.438;2023-05-07T08:59:20;8.40;;;5.03;;
71562;SDS011;59391;52.504;13.438;2023-05-07T09:01:45;9.60;;;5.15;;
71562;SDS011;59391;52.504;13.438;2023-05-07T09:04:11;7.77;;;4.70;;
71562;SDS011;59391;52.504;13.438;2023-05-07T09:06:37;7.28;;;5.00;;
71562;SDS011;59391;52.504;13.438;2023-05-07T09:09:06;7.68;;;4.90;;
71562;SDS011;59391;52.504;13.438;2023-05-07T09:11:32;7.85;;;5.10;;
71562;SDS011;59391;52.504;13.438;2023-05-07T09:13:58;7.60;;;5.07;;
71562;SDS011;59391;52.504;13.438;2023-05-07T09:16:28;7.00;;;4.97;;
71562;SDS011;59391;52.504;13.438;2023-05-07T09:18:57;8.27;;;4.82;;
71562;SDS011;59391;52.504;13.438;2023-05-07T09:21:25;6.60;;;4.88;;
71562;SDS011;59391;52.504;13.438;2023-05-07T09:23:51;8.73;;;4.97;;
71562;SDS011;59391;52.504;13.438;2023-05-07T09:26:22;6.90;;;4.70;;
71562;SDS011;59391;52.504;13.438;2023-05-07T09:28:49;8.98;;;5.07;;
71562;SDS011;59391;52.504;13.438;2023-05-07T09:31:15;7.88;;;4.78;;
71562;SDS011;59391;52.504;13.438;2023-05-07T09:33:41;7.10;;;4.90;;
71562;SDS011;59391;52.504;13.438;2023-05-07T09:36:07;6.80;;;4.70;;
71562;SDS011;59391;52.504;13.438;2023-05-07T09:38:35;7.38;;;4.40;;
71562;SDS011;59391;52.504;13.438;2023-05-07T09:41:06;7.20;;;4.78;;
71562;SDS011;59391;52.504;13.438;2023-05-07T09:43:39;6.57;;;4.40;;
71562;SDS011;59391;52.504;13.438;2023-05-07T09:46:09;6.30;;;4.50;;
71562;SDS011;59391;52.504;13.438;2023-05-07T09:48:42;7.63;;;4.57;;
71562;SDS011;59391;52.504;13.438;2023-05-07T09:51:11;7.85;;;4.65;;
71562;SDS011;59391;52.504;13.438;2023-05-07T09:53:50;8.38;;;4.45;;
71562;SDS011;59391;52.504;13.438;2023-05-07T09:56:18;6.47;;;4.15;;
71562;SDS011;59391;52.504;13.438;2023-05-07T09:58:44;6.40;;;4.15;;
71562;SDS011;59391;52.504;13.438;2023-05-07T10:01:11;6.93;;;3.77;;
71562;SDS011;59391;52.504;13.438;2023-05-07T10:03:39;5.60;;;4.00;;
71562;SDS011;59391;52.504;13.438;2023-05-07T10:06:08;5.63;;;3.40;;
71562;SDS011;59391;52.504;13.438;2023-05-07T10:08:35;6.03;;;3.33;;
71562;SDS011;59391;52.504;13.438;2023-05-07T10:11:03;5.15;;;3.45;;
71562;SDS011;59391;52.504;13.438;2023-05-07T10:13:30;5.33;;;3.30;;
71562;SDS011;59391;52.504;13.438;2023-05-07T10:15:59;6.15;;;3.83;;
71562;SDS011;59391;52.504;13.438;2023-05-07T10:18:26;5.25;;;3.50;;
71562;SDS011;59391;52.504;13.438;2023-05-07T10:20:54;5.07;;;3.00;;
71562;SDS011;59391;52.504;13.438;2023-05-07T10:23:36;5.78;;;3.00;;
71562;SDS011;59391;52.504;13.438;2023-05-07T10:26:04;6.27;;;2.93;;
71562;SDS011;59391;52.504;13.438;2023-05-07T10:28:33;5.05;;;2.70;;
71562;SDS011;59391;52.504;13.438;2023-05-07T10:31:08;4.78;;;2.90;;
71562;SDS011;59391;52.504;13.438;2023-05-07T10:33:56;5.22;;;3.10;;
71562;SDS011;59391;52.504;13.438;2023-05-07T10:36:24;5.72;;;3.03;;
71562;SDS011;59391;52.504;13.438;2023-05-07T10:38:51;5.70;;;3.03;;
71562;SDS011;59391;52.504;13.438;2023-05-07T10:41:17;4.75;;;3.10;;
71562;SDS011;59391;52.504;13.438;2023-05-07T10:43:44;5.13;;;3.17;;
71562;SDS011;59391;52.504;13.438;2023-05-07T10:51:28;5.47;;;3.10;;
71562;SDS011;59391;52.504;13.438;2023-05-07T10:56:37;5.57;;;3.00;;
71562;SDS011;59391;52.504;13.438;2023-05-07T10:59:29;5.25;;;3.20;;
71562;SDS011;59391;52.504;13.438;2023-05-07T11:01:57;4.93;;;3.10;;
71562;SDS011;59391;52.504;13.438;2023-05-07T11:04:28;5.10;;;3.13;;
71562;SDS011;59391;52.504;13.438;2023-05-07T11:15:02;5.10;;;3.20;;
71562;SDS011;59391;52.504;13.438;2023-05-07T11:17:53;5.90;;;3.10;;
71562;SDS011;59391;52.504;13.438;2023-05-07T11:20:36;8.02;;;3.13;;
71562;SDS011;59391;52.504;13.438;2023-05-07T11:26:02;6.00;;;3.47;;
71562;SDS011;59391;52.504;13.438;2023-05-07T11:28:42;4.60;;;2.67;;
71562;SDS011;59391;52.504;13.438;2023-05-07T11:31:09;7.70;;;3.50;;
71562;SDS011;59391;52.504;13.438;2023-05-07T11:33:37;5.22;;;3.33;;
71562;SDS011;59391;52.504;13.438;2023-05-07T11:36:03;4.43;;;3.05;;
71562;SDS011;59391;52.504;13.438;2023-05-07T11:38:30;4.82;;;3.10;;
71562;SDS011;59391;52.504;13.438;2023-05-07T11:41:00;7.60;;;3.30;;
71562;SDS011;59391;52.504;13.438;2023-05-07T11:43:26;5.33;;;3.40;;
71562;SDS011;59391;52.504;13.438;2023-05-07T11:45:52;6.28;;;3.45;;
71562;SDS011;59391;52.504;13.438;2023-05-07T11:48:18;6.03;;;3.35;;
71562;SDS011;59391;52.504;13.438;2023-05-07T11:50:50;4.90;;;3.20;;
71562;SDS011;59391;52.504;13.438;2023-05-07T11:53:26;8.07;;;4.57;;
71562;SDS011;59391;52.504;13.438;2023-05-07T11:56:05;6.53;;;3.58;;
71562;SDS011;59391;52.504;13.438;2023-05-07T11:58:37;4.97;;;3.20;;
71562;SDS011;59391;52.504;13.438;2023-05-07T12:01:03;5.68;;;3.20;;
71562;SDS011;59391;52.504;13.438;2023-05-07T12:03:29;5.90;;;3.20;;
71562;SDS011;59391;52.504;13.438;2023-05-07T12:05:55;4.50;;;2.97;;
71562;SDS011;59391;52.504;13.438;2023-05-07T12:08:21;5.10;;;3.27;;
71562;SDS011;59391;52.504;13.438;2023-05-07T12:10:47;5.85;;;3.00;;
71562;SDS011;59391;52.504;13.438;2023-05-07T12:13:18;4.70;;;3.08;;
71562;SDS011;59391;52.504;13.438;2023-05-07T12:15:52;5.28;;;2.92;;
71562;SDS011;59391;52.504;13.438;2023-05-07T12:18:19;4.60;;;3.10;;
71562;SDS011;59391;52.504;13.438;2023-05-07T12:20:47;5.22;;;2.72;;
71562;SDS011;59391;52.504;13.438;2023-05-07T12:23:14;4.22;;;2.80;;
71562;SDS011;59391;52.504;13.438;2023-05-07T12:25:41;4.57;;;2.72;;
71562;SDS011;59391;52.504;13.438;2023-05-07T12:28:12;4.57;;;2.80;;
71562;SDS011;59391;52.504;13.438;2023-05-07T12:30:43;8.73;;;3.33;;
71562;SDS011;59391;52.504;13.438;2023-05-07T12:33:16;4.72;;;3.00;;
71562;SDS011;59391;52.504;13.438;2023-05-07T12:35:43;4.28;;;2.78;;
71562;SDS011;59391;52.504;13.438;2023-05-07T12:38:09;4.88;;;2.85;;
71562;SDS011;59391;52.504;13.438;2023-05-07T12:40:38;5.27;;;2.60;;
71562;SDS011;59391;52.504;13.438;2023-05-07T12:43:06;5.63;;;3.58;;
71562;SDS011;59391;52.504;13.438;2023-05-07T12:45:39;5.32;;;3.00;;
71562;SDS011;59391;52.504;13.438;2023-05-07T12:48:06;3.97;;;2.50;;
71562;SDS011;59391;52.504;13.438;2023-05-07T12:50:35;5.72;;;2.90;;
71562;SDS011;59391;52.504;13.438;2023-05-07T12:53:00;4.93;;;2.77;;
71562;SDS011;59391;52.504;13.438;2023-05-07T12:55:47;4.70;;;2.75;;
71562;SDS011;59391;52.504;13.438;2023-05-07T13:01:07;4.40;;;2.60;;
71562;SDS011;59391;52.504;13.438;2023-05-07T13:03:35;5.40;;;2.70;;
71562;SDS011;59391;52.504;13.438;2023-05-07T13:06:03;4.72;;;2.65;;
71562;SDS011;59391;52.504;13.438;2023-05-07T13:08:32;8.30;;;3.15;;
71562;SDS011;59391;52.504;13.438;2023-05-07T13:11:10;6.70;;;2.72;;
71562;SDS011;59391;52.504;13.438;2023-05-07T13:13:38;4.80;;;2.60;;
71562;SDS011;59391;52.504;13.438;2023-05-07T13:16:06;4.65;;;2.90;;
71562;SDS011;59391;52.504;13.438;2023-05-07T13:18:34;5.50;;;3.38;;
71562;SDS011;59391;52.504;13.438;2023-05-07T13:21:01;6.75;;;3.08;;
71562;SDS011;59391;52.504;13.438;2023-05-07T13:23:27;4.83;;;2.90;;
71562;SDS011;59391;52.504;13.438;2023-05-07T13:25:53;4.88;;;2.80;;
71562;SDS011;59391;52.504;13.438;2023-05-07T13:28:20;5.97;;;2.60;;
71562;SDS011;59391;52.504;13.438;2023-05-07T13:30:48;5.07;;;2.78;;
71562;SDS011;59391;52.504;13.438;2023-05-07T13:33:14;5.70;;;2.27;;
71562;SDS011;59391;52.504;13.438;2023-05-07T13:35:40;5.38;;;2.65;;
71562;SDS011;59391;52.504;13.438;2023-05-07T13:38:06;5.45;;;2.83;;
71562;SDS011;59391;52.504;13.438;2023-05-07T13:40:32;4.45;;;2.75;;
71562;SDS011;59391;52.504;13.438;2023-05-07T13:42:58;5.27;;;2.83;;
71562;SDS011;59391;52.504;13.438;2023-05-07T13:45:27;5.20;;;2.60;;
71562;SDS011;59391;52.504;13.438;2023-05-07T13:47:54;4.25;;;2.47;;
71562;SDS011;59391;52.504;13.438;2023-05-07T13:50:21;4.50;;;2.70;;
71562;SDS011;59391;52.504;13.438;2023-05-07T13:52:47;5.50;;;3.20;;
71562;SDS011;59391;52.504;13.438;2023-05-07T13:55:19;7.55;;;3.28;;
71562;SDS011;59391;52.504;13.438;2023-05-07T13:57:46;4.80;;;2.95;;
71562;SDS011;59391;52.504;13.438;2023-05-07T14:00:13;5.10;;;2.60;;
71562;SDS011;59391;52.504;13.438;2023-05-07T14:02:39;5.03;;;2.60;;
71562;SDS011;59391;52.504;13.438;2023-05-07T14:05:05;4.00;;;2.45;;
71562;SDS011;59391;52.504;13.438;2023-05-07T14:07:32;4.90;;;2.72;;
71562;SDS011;59391;52.504;13.438;2023-05-07T14:09:57;5.40;;;2.83;;
71562;SDS011;59391;52.504;13.438;2023-05-07T14:12:23;4.63;;;2.70;;
71562;SDS011;59391;52.504;13.438;2023-05-07T14:14:49;5.63;;;2.93;;
71562;SDS011;59391;52.504;13.438;2023-05-07T14:17:15;5.20;;;2.90;;
71562;SDS011;59391;52.504;13.438;2023-05-07T14:19:42;7.63;;;2.95;;
71562;SDS011;59391;52.504;13.438;2023-05-07T14:22:08;5.00;;;2.67;;
71562;SDS011;59391;52.504;13.438;2023-05-07T14:24:34;4.60;;;2.70;;
71562;SDS011;59391;52.504;13.438;2023-05-07T14:26:59;4.60;;;2.43;;
71562;SDS011;59391;52.504;13.438;2023-05-07T14:29:25;6.38;;;2.65;;
71562;SDS011;59391;52.504;13.438;2023-05-07T14:31:51;5.27;;;2.60;;
71562;SDS011;59391;52.504;13.438;2023-05-07T14:34:16;4.88;;;2.60;;
71562;SDS011;59391;52.504;13.438;2023-05-07T14:36:42;4.83;;;2.40;;
71562;SDS011;59391;52.504;13.438;2023-05-07T14:39:08;5.55;;;2.47;;
71562;SDS011;59391;52.504;13.438;2023-05-07T14:41:35;4.40;;;2.60;;
71562;SDS011;59391;52.504;13.438;2023-05-07T14:44:00;5.23;;;2.60;;
71562;SDS011;59391;52.504;13.438;2023-05-07T14:46:28;5.30;;;2.50;;